createdAt,value
2019-02-11T00:00:19.426Z,973.84
2019-02-11T00:01:19.569Z,973.77
2019-02-11T00:02:19.689Z,973.82
2019-02-11T00:03:19.814Z,973.88
2019-02-11T00:04:19.968Z,973.94
2019-02-11T00:05:20.090Z,973.90
2019-02-11T00:06:20.230Z,973.96
2019-02-11T00:07:20.353Z,974.00
2019-02-11T00:08:20.469Z,973.97
2019-02-11T00:09:20.599Z,974.05
2019-02-11T00:10:20.752Z,974.04
2019-02-11T00:11:20.867Z,974.16
2019-02-11T00:12:21.042Z,974.17
2019-02-11T00:13:21.115Z,974.13
2019-02-11T00:14:21.278Z,974.21
2019-02-11T00:15:21.392Z,974.24
2019-02-11T00:16:21.526Z,974.28
2019-02-11T00:17:21.654Z,974.31
2019-02-11T00:18:21.777Z,974.32
2019-02-11T00:19:21.910Z,974.31
2019-02-11T00:20:22.040Z,974.37
2019-02-11T00:21:22.169Z,974.38
2019-02-11T00:22:22.290Z,974.43
2019-02-11T00:23:22.409Z,974.50
2019-02-11T00:24:22.535Z,974.49
2019-02-11T00:25:22.690Z,974.56
2019-02-11T00:26:22.809Z,974.60
2019-02-11T00:27:22.941Z,974.53
2019-02-11T00:28:23.108Z,974.66
2019-02-11T00:29:23.217Z,974.72
2019-02-11T00:30:23.338Z,974.70
2019-02-11T00:31:23.492Z,974.79
2019-02-11T00:32:23.591Z,974.68
2019-02-11T00:33:23.714Z,974.71
2019-02-11T00:34:23.855Z,974.78
2019-02-11T00:35:23.977Z,974.82
2019-02-11T00:36:24.108Z,974.86
2019-02-11T00:37:24.218Z,974.85
2019-02-11T00:38:24.366Z,974.91
2019-02-11T00:39:24.489Z,974.92
2019-02-11T00:40:24.618Z,975.01
2019-02-11T00:41:24.730Z,975.00
2019-02-11T00:42:24.891Z,974.99
2019-02-11T00:43:25.013Z,975.03
2019-02-11T00:44:25.136Z,975.13
2019-02-11T00:45:25.274Z,975.09
2019-02-11T00:46:25.390Z,975.18
2019-02-11T00:47:25.531Z,975.20
2019-02-11T00:48:25.675Z,975.23
2019-02-11T00:49:25.793Z,975.27
2019-02-11T00:50:25.919Z,975.31
2019-02-11T00:51:26.072Z,975.31
2019-02-11T00:52:26.201Z,975.42
2019-02-11T00:53:26.325Z,975.40
2019-02-11T00:54:26.547Z,975.44
2019-02-11T00:55:26.598Z,975.45
2019-02-11T00:56:26.718Z,975.52
2019-02-11T00:57:26.852Z,975.53
2019-02-11T00:58:26.985Z,975.59
2019-02-11T00:59:27.118Z,975.61
2019-02-11T01:00:27.233Z,975.68
2019-02-11T01:01:27.357Z,975.67
2019-02-11T01:02:27.488Z,975.73
2019-02-11T01:03:27.602Z,975.72
2019-02-11T01:04:27.728Z,975.76
2019-02-11T01:05:27.851Z,975.76
2019-02-11T01:06:27.997Z,975.88
2019-02-11T01:07:28.134Z,975.90
2019-02-11T01:08:28.247Z,975.87
2019-02-11T01:09:28.370Z,975.93
2019-02-11T01:10:28.526Z,975.98
2019-02-11T01:11:28.637Z,975.97
2019-02-11T01:12:28.762Z,976.00
2019-02-11T01:13:28.899Z,975.99
2019-02-11T01:14:29.036Z,976.06
2019-02-11T01:15:29.158Z,976.09
2019-02-11T01:16:29.293Z,976.11
2019-02-11T01:17:29.425Z,976.15
2019-02-11T01:18:29.551Z,976.17
2019-02-11T01:19:29.671Z,976.21
2019-02-11T01:20:29.792Z,976.22
2019-02-11T01:21:29.923Z,976.28
2019-02-11T01:22:30.048Z,976.28
2019-02-11T01:23:30.210Z,976.29
2019-02-11T01:24:30.309Z,976.31
2019-02-11T01:25:30.443Z,976.35
2019-02-11T01:26:30.560Z,976.35
2019-02-11T01:27:30.689Z,976.38
2019-02-11T01:28:30.841Z,976.40
2019-02-11T01:29:30.959Z,976.42
2019-02-11T01:30:31.087Z,976.48
2019-02-11T01:31:31.212Z,976.44
2019-02-11T01:32:31.378Z,976.47
2019-02-11T01:33:31.493Z,976.44
2019-02-11T01:34:31.626Z,976.49
2019-02-11T01:35:31.747Z,976.49
2019-02-11T01:36:31.874Z,976.52
2019-02-11T01:37:32.009Z,976.56
2019-02-11T01:38:32.125Z,976.57
2019-02-11T01:39:32.242Z,976.58
2019-02-11T01:40:32.352Z,976.65
2019-02-11T01:41:32.489Z,976.64
2019-02-11T01:42:32.603Z,976.72
2019-02-11T01:43:36.156Z,976.71
2019-02-11T01:44:32.880Z,976.73
2019-02-11T01:45:32.987Z,976.71
2019-02-11T01:46:33.115Z,976.79
2019-02-11T01:47:33.253Z,976.78
2019-02-11T01:48:33.379Z,976.84
2019-02-11T01:49:33.503Z,976.88
2019-02-11T01:50:33.629Z,976.86
2019-02-11T01:51:33.753Z,976.91
2019-02-11T01:52:33.876Z,976.94
2019-02-11T01:53:34.007Z,976.98
2019-02-11T01:54:34.130Z,976.95
2019-02-11T01:55:34.275Z,976.95
2019-02-11T01:56:34.396Z,976.99
2019-02-11T01:57:34.524Z,977.00
2019-02-11T01:58:34.677Z,977.08
2019-02-11T01:59:34.804Z,977.09
2019-02-11T02:00:34.929Z,977.15
2019-02-11T02:01:35.057Z,977.15
2019-02-11T02:02:35.176Z,977.19
2019-02-11T02:03:35.306Z,977.16
2019-02-11T02:04:35.473Z,977.25
2019-02-11T02:05:35.570Z,977.30
2019-02-11T02:06:35.698Z,977.32
2019-02-11T02:07:35.813Z,977.38
2019-02-11T02:08:35.988Z,977.44
2019-02-11T02:09:36.114Z,977.48
2019-02-11T02:10:36.235Z,977.53
2019-02-11T02:11:36.355Z,977.59
2019-02-11T02:12:36.569Z,977.59
2019-02-11T02:13:44.432Z,977.52
2019-02-11T02:14:36.741Z,977.57
2019-02-11T02:15:36.868Z,977.61
2019-02-11T02:16:37.018Z,977.63
2019-02-11T02:17:37.143Z,977.66
2019-02-11T02:18:37.326Z,977.72
2019-02-11T02:19:37.394Z,977.69
2019-02-11T02:20:37.538Z,977.68
2019-02-11T02:21:37.663Z,977.73
2019-02-11T02:22:37.788Z,977.76
2019-02-11T02:23:37.926Z,977.75
2019-02-11T02:24:38.052Z,977.74
2019-02-11T02:25:38.172Z,977.78
2019-02-11T02:26:38.314Z,977.84
2019-02-11T02:27:38.439Z,977.80
2019-02-11T02:28:38.564Z,977.86
2019-02-11T02:29:38.694Z,977.82
2019-02-11T02:30:38.825Z,977.81
2019-02-11T02:31:38.949Z,977.77
2019-02-11T02:32:39.079Z,977.83
2019-02-11T02:33:39.194Z,977.89
2019-02-11T02:34:39.349Z,977.94
2019-02-11T02:35:39.458Z,977.92
2019-02-11T02:36:39.582Z,977.98
2019-02-11T02:37:39.708Z,978.02
2019-02-11T02:38:39.830Z,977.99
2019-02-11T02:39:39.952Z,978.03
2019-02-11T02:40:40.076Z,978.06
2019-02-11T02:41:40.203Z,978.03
2019-02-11T02:42:40.332Z,978.08
2019-02-11T02:43:40.468Z,978.16
2019-02-11T02:44:40.591Z,978.14
2019-02-11T02:45:40.718Z,978.14
2019-02-11T02:46:40.845Z,978.20
2019-02-11T02:47:40.991Z,978.22
2019-02-11T02:48:41.116Z,978.19
2019-02-11T02:49:41.240Z,978.20
2019-02-11T02:50:41.375Z,978.25
2019-02-11T02:51:41.516Z,978.26
2019-02-11T02:52:41.633Z,978.30
2019-02-11T02:53:41.762Z,978.32
2019-02-11T02:54:41.884Z,978.34
2019-02-11T02:55:42.025Z,978.41
2019-02-11T02:56:42.142Z,978.44
2019-02-11T02:57:42.268Z,978.46
2019-02-11T02:58:42.412Z,978.44
2019-02-11T02:59:42.535Z,978.52
2019-02-11T03:00:42.656Z,978.54
2019-02-11T03:01:42.800Z,978.55
2019-02-11T03:02:42.921Z,978.60
2019-02-11T03:03:43.053Z,978.59
2019-02-11T03:04:43.175Z,978.59
2019-02-11T03:05:43.300Z,978.64
2019-02-11T03:06:43.431Z,978.64
2019-02-11T03:07:43.550Z,978.66
2019-02-11T03:08:43.675Z,978.67
2019-02-11T03:09:43.798Z,978.71
2019-02-11T03:10:43.948Z,978.75
2019-02-11T03:11:44.064Z,978.75
2019-02-11T03:12:44.204Z,978.77
2019-02-11T03:13:44.319Z,978.75
2019-02-11T03:14:44.490Z,978.74
2019-02-11T03:15:44.605Z,978.78
2019-02-11T03:16:45.421Z,978.84
2019-02-11T03:17:44.922Z,978.83
2019-02-11T03:18:45.045Z,978.87
2019-02-11T03:19:45.205Z,978.82
2019-02-11T03:20:45.335Z,978.90
2019-02-11T03:21:45.449Z,978.93
2019-02-11T03:22:45.590Z,978.96
2019-02-11T03:23:45.712Z,978.90
2019-02-11T03:24:45.840Z,978.97
2019-02-11T03:25:45.956Z,979.00
2019-02-11T03:26:46.096Z,979.05
2019-02-11T03:27:46.259Z,979.07
2019-02-11T03:28:46.365Z,979.09
2019-02-11T03:29:46.486Z,979.11
2019-02-11T03:30:46.613Z,979.07
2019-02-11T03:31:46.807Z,979.08
2019-02-11T03:32:46.889Z,979.18
2019-02-11T03:33:47.012Z,979.22
2019-02-11T03:34:47.135Z,979.19
2019-02-11T03:35:47.284Z,979.25
2019-02-11T03:36:47.402Z,979.18
2019-02-11T03:37:47.526Z,979.24
2019-02-11T03:38:47.675Z,979.28
2019-02-11T03:39:47.782Z,979.26
2019-02-11T03:40:47.906Z,979.30
2019-02-11T03:41:48.038Z,979.26
2019-02-11T03:42:48.203Z,979.36
2019-02-11T03:43:48.322Z,979.28
2019-02-11T03:44:48.441Z,979.26
2019-02-11T03:45:48.568Z,979.44
2019-02-11T03:46:48.726Z,979.44
2019-02-11T03:47:48.843Z,979.43
2019-02-11T03:48:48.971Z,979.47
2019-02-11T03:49:49.103Z,979.56
2019-02-11T03:50:49.225Z,979.49
2019-02-11T03:51:49.342Z,979.53
2019-02-11T03:52:49.469Z,979.58
2019-02-11T03:53:49.589Z,979.59
2019-02-11T03:54:49.714Z,979.56
2019-02-11T03:55:49.858Z,979.59
2019-02-11T03:56:49.966Z,979.60
2019-02-11T03:57:50.084Z,979.63
2019-02-11T03:58:50.221Z,979.65
2019-02-11T03:59:50.372Z,979.72
2019-02-11T04:00:50.470Z,979.72
2019-02-11T04:01:50.604Z,979.79
2019-02-11T04:02:50.731Z,979.79
2019-02-11T04:03:50.860Z,979.78
2019-02-11T04:04:50.987Z,979.89
2019-02-11T04:05:51.113Z,979.91
2019-02-11T04:06:51.264Z,979.91
2019-02-11T04:07:51.376Z,979.93
2019-02-11T04:08:51.502Z,980.00
2019-02-11T04:09:51.630Z,979.96
2019-02-11T04:10:51.757Z,979.98
2019-02-11T04:11:51.881Z,980.00
2019-02-11T04:12:52.003Z,980.02
2019-02-11T04:13:52.129Z,980.08
2019-02-11T04:14:52.263Z,980.07
2019-02-11T04:15:52.383Z,980.10
2019-02-11T04:16:52.518Z,980.12
2019-02-11T04:17:52.627Z,980.12
2019-02-11T04:18:52.776Z,980.13
2019-02-11T04:19:52.902Z,980.15
2019-02-11T04:20:53.035Z,980.13
2019-02-11T04:21:53.183Z,980.22
2019-02-11T04:22:53.314Z,980.20
2019-02-11T04:23:53.432Z,980.22
2019-02-11T04:24:53.559Z,980.25
2019-02-11T04:25:53.702Z,980.28
2019-02-11T04:26:53.820Z,980.32
2019-02-11T04:27:53.949Z,980.32
2019-02-11T04:28:54.081Z,980.27
2019-02-11T04:29:54.205Z,980.38
2019-02-11T04:30:54.326Z,980.34
2019-02-11T04:31:54.482Z,980.35
2019-02-11T04:32:54.598Z,980.42
2019-02-11T04:33:54.720Z,980.41
2019-02-11T04:34:54.853Z,980.46
2019-02-11T04:35:54.990Z,980.50
2019-02-11T04:36:55.106Z,980.49
2019-02-11T04:37:55.231Z,980.52
2019-02-11T04:38:55.357Z,980.58
2019-02-11T04:39:55.491Z,980.58
2019-02-11T04:40:55.614Z,980.59
2019-02-11T04:41:55.740Z,980.66
2019-02-11T04:42:55.866Z,980.65
2019-02-11T04:43:56.005Z,980.70
2019-02-11T04:44:56.126Z,980.71
2019-02-11T04:45:56.249Z,980.73
2019-02-11T04:46:56.374Z,980.77
2019-02-11T04:47:56.502Z,980.75
2019-02-11T04:48:56.628Z,980.76
2019-02-11T04:49:56.757Z,980.81
2019-02-11T04:50:56.893Z,980.85
2019-02-11T04:51:58.870Z,980.87
2019-02-11T04:52:57.124Z,980.89
2019-02-11T04:53:57.264Z,980.92
2019-02-11T04:54:57.385Z,980.87
2019-02-11T04:55:57.524Z,980.94
2019-02-11T04:56:57.652Z,980.98
2019-02-11T04:57:57.800Z,981.00
2019-02-11T04:58:57.921Z,980.99
2019-02-11T04:59:58.041Z,981.04
2019-02-11T05:00:58.185Z,981.08
2019-02-11T05:01:58.306Z,981.02
2019-02-11T05:02:58.431Z,981.09
2019-02-11T05:03:58.579Z,981.06
2019-02-11T05:04:58.693Z,981.13
2019-02-11T05:05:58.812Z,981.07
2019-02-11T05:06:58.937Z,981.17
2019-02-11T05:07:59.078Z,981.13
2019-02-11T05:08:59.217Z,981.17
2019-02-11T05:09:59.341Z,981.17
2019-02-11T05:10:59.449Z,981.17
2019-02-11T05:11:59.576Z,981.15
2019-02-11T05:12:59.735Z,981.22
2019-02-11T05:13:59.836Z,981.23
2019-02-11T05:14:59.964Z,981.23
2019-02-11T05:16:00.090Z,981.23
2019-02-11T05:17:00.229Z,981.24
2019-02-11T05:18:00.347Z,981.25
2019-02-11T05:19:00.469Z,981.29
2019-02-11T05:20:00.607Z,981.30
2019-02-11T05:21:00.740Z,981.27
2019-02-11T05:22:00.856Z,981.32
2019-02-11T05:23:00.981Z,981.30
2019-02-11T05:24:01.126Z,981.28
2019-02-11T05:25:01.249Z,981.27
2019-02-11T05:26:01.370Z,981.36
2019-02-11T05:27:01.515Z,981.34
2019-02-11T05:28:01.639Z,981.36
2019-02-11T05:29:01.760Z,981.39
2019-02-11T05:30:01.935Z,981.35
2019-02-11T05:31:02.050Z,981.35
2019-02-11T05:32:02.164Z,981.39
2019-02-11T05:33:02.289Z,981.38
2019-02-11T05:34:02.409Z,981.38
2019-02-11T05:35:02.556Z,981.37
2019-02-11T05:36:02.674Z,981.44
2019-02-11T05:37:02.791Z,981.45
2019-02-11T05:38:02.931Z,981.51
2019-02-11T05:39:03.082Z,981.51
2019-02-11T05:40:03.202Z,981.52
2019-02-11T05:41:03.352Z,981.53
2019-02-11T05:42:03.456Z,981.58
2019-02-11T05:43:03.599Z,981.59
2019-02-11T05:44:05.818Z,981.60
2019-02-11T05:45:03.846Z,981.65
2019-02-11T05:46:03.965Z,981.72
2019-02-11T05:47:04.128Z,981.75
2019-02-11T05:48:04.241Z,981.76
2019-02-11T05:49:04.366Z,981.73
2019-02-11T05:50:04.507Z,981.75
2019-02-11T05:51:04.624Z,981.75
2019-02-11T05:52:04.752Z,981.76
2019-02-11T05:53:04.886Z,981.75
2019-02-11T05:54:05.001Z,981.78
2019-02-11T05:55:05.125Z,981.81
2019-02-11T05:56:05.251Z,981.79
2019-02-11T05:57:05.420Z,981.86
2019-02-11T05:58:05.540Z,981.84
2019-02-11T05:59:05.674Z,981.87
2019-02-11T06:00:05.792Z,981.93
2019-02-11T06:01:05.944Z,981.97
2019-02-11T06:02:06.062Z,981.99
2019-02-11T06:03:06.189Z,981.95
2019-02-11T06:04:06.308Z,982.02
2019-02-11T06:05:06.449Z,982.02
2019-02-11T06:06:06.573Z,981.97
2019-02-11T06:07:06.705Z,982.06
2019-02-11T06:08:06.901Z,982.15
2019-02-11T06:09:06.951Z,982.11
2019-02-11T06:10:07.091Z,982.08
2019-02-11T06:11:07.194Z,982.15
2019-02-11T06:12:07.349Z,982.19
2019-02-11T06:13:07.468Z,982.17
2019-02-11T06:14:07.583Z,982.18
2019-02-11T06:15:07.709Z,982.25
2019-02-11T06:16:07.851Z,982.24
2019-02-11T06:17:07.974Z,982.30
2019-02-11T06:18:08.109Z,982.30
2019-02-11T06:19:08.235Z,982.39
2019-02-11T06:20:08.354Z,982.36
2019-02-11T06:21:08.489Z,982.44
2019-02-11T06:22:08.637Z,982.45
2019-02-11T06:23:08.761Z,982.47
2019-02-11T06:24:08.887Z,982.45
2019-02-11T06:25:09.057Z,982.46
2019-02-11T06:26:09.150Z,982.49
2019-02-11T06:27:09.271Z,982.50
2019-02-11T06:28:09.410Z,982.55
2019-02-11T06:29:09.520Z,982.56
2019-02-11T06:30:09.664Z,982.54
2019-02-11T06:31:09.783Z,982.60
2019-02-11T06:32:09.911Z,982.59
2019-02-11T06:33:10.045Z,982.70
2019-02-11T06:34:10.190Z,982.71
2019-02-11T06:35:10.309Z,982.76
2019-02-11T06:36:12.698Z,982.83
2019-02-11T06:37:10.583Z,982.83
2019-02-11T06:38:10.702Z,982.89
2019-02-11T06:39:10.827Z,982.91
2019-02-11T06:40:10.965Z,982.95
2019-02-11T06:41:11.087Z,983.03
2019-02-11T06:42:11.231Z,983.07
2019-02-11T06:43:11.363Z,983.06
2019-02-11T06:44:11.480Z,983.08
2019-02-11T06:45:13.405Z,983.13
2019-02-11T06:46:11.739Z,983.22
2019-02-11T06:47:11.865Z,983.22
2019-02-11T06:48:11.992Z,983.24
2019-02-11T06:49:12.147Z,983.24
2019-02-11T06:50:12.269Z,983.28
2019-02-11T06:51:12.397Z,983.25
2019-02-11T06:52:12.524Z,983.28
2019-02-11T06:53:12.660Z,983.36
2019-02-11T06:54:12.783Z,983.35
2019-02-11T06:55:12.909Z,983.44
2019-02-11T06:56:13.040Z,983.46
2019-02-11T06:57:13.196Z,983.49
2019-02-11T06:58:13.304Z,983.51
2019-02-11T06:59:13.433Z,983.49
2019-02-11T07:00:13.575Z,983.55
2019-02-11T07:01:13.689Z,983.59
2019-02-11T07:02:13.821Z,983.62
2019-02-11T07:03:13.945Z,983.64
2019-02-11T07:04:14.078Z,983.57
2019-02-11T07:05:14.200Z,983.62
2019-02-11T07:06:14.324Z,983.67
2019-02-11T07:07:14.479Z,983.70
2019-02-11T07:08:14.611Z,983.67
2019-02-11T07:09:14.725Z,983.71
2019-02-11T07:10:14.849Z,983.74
2019-02-11T07:11:14.963Z,983.73
2019-02-11T07:12:15.084Z,983.73
2019-02-11T07:13:15.212Z,983.78
2019-02-11T07:14:15.386Z,983.76
2019-02-11T07:15:21.522Z,983.74
2019-02-11T07:16:15.608Z,983.76
2019-02-11T07:17:15.730Z,983.84
2019-02-11T07:18:15.850Z,983.82
2019-02-11T07:19:15.984Z,983.84
2019-02-11T07:20:16.133Z,983.90
2019-02-11T07:21:16.250Z,983.90
2019-02-11T07:22:16.372Z,983.97
2019-02-11T07:23:16.500Z,984.00
2019-02-11T07:24:16.623Z,983.95
2019-02-11T07:25:16.830Z,983.94
2019-02-11T07:26:16.898Z,984.04
2019-02-11T07:27:17.023Z,984.05
2019-02-11T07:28:17.148Z,984.09
2019-02-11T07:29:17.333Z,984.05
2019-02-11T07:30:17.422Z,984.10
2019-02-11T07:31:17.557Z,984.09
2019-02-11T07:32:17.704Z,984.12
2019-02-11T07:33:17.821Z,984.12
2019-02-11T07:34:17.954Z,984.15
2019-02-11T07:35:18.077Z,984.15
2019-02-11T07:36:18.218Z,984.19
2019-02-11T07:37:18.343Z,984.24
2019-02-11T07:38:18.467Z,984.25
2019-02-11T07:39:18.590Z,984.28
2019-02-11T07:40:18.736Z,984.31
2019-02-11T07:41:18.860Z,984.32
2019-02-11T07:42:18.984Z,984.34
2019-02-11T07:43:19.110Z,984.41
2019-02-11T07:44:19.254Z,984.44
2019-02-11T07:45:19.374Z,984.50
2019-02-11T07:46:19.500Z,984.46
2019-02-11T07:47:19.613Z,984.54
2019-02-11T07:48:19.769Z,984.51
2019-02-11T07:49:19.888Z,984.50
2019-02-11T07:50:20.011Z,984.51
2019-02-11T07:51:20.159Z,984.56
2019-02-11T07:52:26.703Z,984.50
2019-02-11T07:53:20.398Z,984.59
2019-02-11T07:54:20.551Z,984.59
2019-02-11T07:55:20.674Z,984.61
2019-02-11T07:56:20.801Z,984.60
2019-02-11T07:57:20.923Z,984.61
2019-02-11T07:58:21.075Z,984.63
2019-02-11T07:59:21.202Z,984.68
2019-02-11T08:00:21.320Z,984.68
2019-02-11T08:01:21.442Z,984.77
2019-02-11T08:02:21.587Z,984.73
2019-02-11T08:03:21.708Z,984.74
2019-02-11T08:04:21.839Z,984.75
2019-02-11T08:05:21.974Z,984.70
2019-02-11T08:06:22.097Z,984.73
2019-02-11T08:07:22.218Z,984.75
2019-02-11T08:08:22.342Z,984.82
2019-02-11T08:09:22.502Z,984.79
2019-02-11T08:10:22.620Z,984.79
2019-02-11T08:11:22.746Z,984.86
2019-02-11T08:12:22.872Z,984.87
2019-02-11T08:13:23.038Z,984.90
2019-02-11T08:14:23.235Z,984.94
2019-02-11T08:15:23.291Z,984.94
2019-02-11T08:16:23.421Z,985.00
2019-02-11T08:17:23.543Z,985.00
2019-02-11T08:18:23.712Z,985.05
2019-02-11T08:19:23.832Z,985.06
2019-02-11T08:20:23.964Z,985.06
2019-02-11T08:21:24.088Z,985.08
2019-02-11T08:22:24.217Z,985.11
2019-02-11T08:23:24.332Z,985.11
2019-02-11T08:24:24.467Z,985.13
2019-02-11T08:25:24.591Z,985.18
2019-02-11T08:26:24.740Z,985.19
2019-02-11T08:27:24.857Z,985.24
2019-02-11T08:28:24.984Z,985.27
2019-02-11T08:29:25.111Z,985.32
2019-02-11T08:30:25.284Z,985.26
2019-02-11T08:31:25.470Z,985.30
2019-02-11T08:32:25.467Z,985.31
2019-02-11T08:33:25.601Z,985.31
2019-02-11T08:34:25.729Z,985.35
2019-02-11T08:35:25.846Z,985.43
2019-02-11T08:36:25.969Z,985.45
2019-02-11T08:37:26.100Z,985.44
2019-02-11T08:38:26.250Z,985.54
2019-02-11T08:39:26.365Z,985.52
2019-02-11T08:40:26.535Z,985.50
2019-02-11T08:41:26.616Z,985.54
2019-02-11T08:42:26.766Z,985.57
2019-02-11T08:43:26.891Z,985.59
2019-02-11T08:44:27.013Z,985.56
2019-02-11T08:45:27.141Z,985.55
2019-02-11T08:46:27.302Z,985.59
2019-02-11T08:47:27.422Z,985.56
2019-02-11T08:48:27.547Z,985.64
2019-02-11T08:49:27.688Z,985.57
2019-02-11T08:50:27.815Z,985.67
2019-02-11T08:51:27.936Z,985.69
2019-02-11T08:52:28.070Z,985.71
2019-02-11T08:53:28.216Z,985.76
2019-02-11T08:54:28.389Z,985.71
2019-02-11T08:55:28.504Z,985.80
2019-02-11T08:56:28.635Z,985.79
2019-02-11T08:57:28.765Z,985.81
2019-02-11T08:58:28.894Z,985.84
2019-02-11T08:59:29.021Z,985.80
2019-02-11T09:00:29.160Z,985.84
2019-02-11T09:01:29.273Z,985.89
2019-02-11T09:02:29.401Z,985.87
2019-02-11T09:03:29.539Z,985.92
2019-02-11T09:04:29.663Z,985.92
2019-02-11T09:05:29.788Z,985.95
2019-02-11T09:06:29.941Z,985.92
2019-02-11T09:07:30.061Z,985.97
2019-02-11T09:08:30.185Z,986.04
2019-02-11T09:09:30.338Z,986.05
2019-02-11T09:10:30.478Z,986.02
2019-02-11T09:11:30.596Z,986.04
2019-02-11T09:12:30.748Z,986.09
2019-02-11T09:13:30.868Z,986.12
2019-02-11T09:14:31.085Z,986.11
2019-02-11T09:15:31.143Z,986.16
2019-02-11T09:16:31.266Z,986.15
2019-02-11T09:17:31.399Z,986.17
2019-02-11T09:18:31.514Z,986.16
2019-02-11T09:19:31.661Z,986.20
2019-02-11T09:20:31.787Z,986.17
2019-02-11T09:21:31.905Z,986.19
2019-02-11T09:22:32.043Z,986.27
2019-02-11T09:23:32.184Z,986.30
2019-02-11T09:24:32.292Z,986.34
2019-02-11T09:25:32.418Z,986.35
2019-02-11T09:26:32.543Z,986.38
2019-02-11T09:27:32.706Z,986.38
2019-02-11T09:28:32.817Z,986.41
2019-02-11T09:29:32.943Z,986.48
2019-02-11T09:30:33.068Z,986.45
2019-02-11T09:31:33.209Z,986.48
2019-02-11T09:32:33.333Z,986.52
2019-02-11T09:33:33.469Z,986.47
2019-02-11T09:34:33.583Z,986.50
2019-02-11T09:35:33.740Z,986.48
2019-02-11T09:36:33.862Z,986.55
2019-02-11T09:37:33.996Z,986.56
2019-02-11T09:38:34.107Z,986.52
2019-02-11T09:39:34.286Z,986.54
2019-02-11T09:40:34.374Z,986.57
2019-02-11T09:41:34.500Z,986.57
2019-02-11T09:42:34.624Z,986.67
2019-02-11T09:43:34.764Z,986.60
2019-02-11T09:44:34.884Z,986.63
2019-02-11T09:45:35.008Z,986.67
2019-02-11T09:46:35.165Z,986.65
2019-02-11T09:47:35.305Z,986.69
2019-02-11T09:48:35.418Z,986.66
2019-02-11T09:49:35.550Z,986.72
2019-02-11T09:50:35.716Z,986.71
2019-02-11T09:51:35.794Z,986.77
2019-02-11T09:52:35.926Z,986.77
2019-02-11T09:53:36.051Z,986.78
2019-02-11T09:54:36.187Z,986.81
2019-02-11T09:55:36.305Z,986.78
2019-02-11T09:56:36.430Z,986.86
2019-02-11T09:57:36.560Z,986.88
2019-02-11T09:58:38.105Z,986.91
2019-02-11T09:59:36.827Z,986.97
2019-02-11T10:00:36.953Z,986.95
2019-02-11T10:01:37.074Z,986.99
2019-02-11T10:02:37.212Z,987.05
2019-02-11T10:03:37.339Z,987.03
2019-02-11T10:04:37.519Z,987.04
2019-02-11T10:05:37.600Z,987.06
2019-02-11T10:06:37.740Z,987.01
2019-02-11T10:07:37.858Z,987.09
2019-02-11T10:08:37.979Z,987.07
2019-02-11T10:09:38.135Z,987.05
2019-02-11T10:10:38.260Z,987.09
2019-02-11T10:11:38.379Z,987.13
2019-02-11T10:12:38.509Z,987.11
2019-02-11T10:13:38.637Z,987.12
2019-02-11T10:14:38.755Z,987.16
2019-02-11T10:15:38.887Z,987.20
2019-02-11T10:16:39.023Z,987.23
2019-02-11T10:17:39.143Z,987.29
2019-02-11T10:18:39.262Z,987.27
2019-02-11T10:19:39.387Z,987.31
2019-02-11T10:20:39.517Z,987.30
2019-02-11T10:21:39.650Z,987.32
2019-02-11T10:22:39.766Z,987.31
2019-02-11T10:23:39.897Z,987.34
2019-02-11T10:24:40.021Z,987.43
2019-02-11T10:25:40.170Z,987.40
2019-02-11T10:26:40.282Z,987.37
2019-02-11T10:27:40.389Z,987.44
2019-02-11T10:28:40.530Z,987.42
2019-02-11T10:29:40.657Z,987.44
2019-02-11T10:30:40.792Z,987.44
2019-02-11T10:31:40.918Z,987.43
2019-02-11T10:32:41.042Z,987.40
2019-02-11T10:33:41.170Z,987.43
2019-02-11T10:34:41.288Z,987.51
2019-02-11T10:35:42.460Z,987.55
2019-02-11T10:36:41.545Z,987.56
2019-02-11T10:37:41.664Z,987.55
2019-02-11T10:38:41.789Z,987.54
2019-02-11T10:39:41.919Z,987.57
2019-02-11T10:40:42.042Z,987.57
2019-02-11T10:41:42.169Z,987.60
2019-02-11T10:42:42.294Z,987.60
2019-02-11T10:43:42.423Z,987.58
2019-02-11T10:44:42.548Z,987.56
2019-02-11T10:45:42.676Z,987.65
2019-02-11T10:46:42.795Z,987.64
2019-02-11T10:47:42.922Z,987.64
2019-02-11T10:48:43.049Z,987.62
2019-02-11T10:49:43.171Z,987.68
2019-02-11T10:50:43.297Z,987.66
2019-02-11T10:51:43.432Z,987.66
2019-02-11T10:52:43.562Z,987.64
2019-02-11T10:53:43.691Z,987.76
2019-02-11T10:54:43.836Z,987.71
2019-02-11T10:55:43.960Z,987.69
2019-02-11T10:56:44.073Z,987.72
2019-02-11T10:57:44.205Z,987.76
2019-02-11T10:58:44.333Z,987.71
2019-02-11T10:59:44.459Z,987.76
2019-02-11T11:00:44.590Z,987.68
2019-02-11T11:01:44.725Z,987.76
2019-02-11T11:02:44.842Z,987.76
2019-02-11T11:03:44.966Z,987.73
2019-02-11T11:04:45.091Z,987.74
2019-02-11T11:05:45.225Z,987.82
2019-02-11T11:06:45.345Z,987.87
2019-02-11T11:07:45.470Z,987.83
2019-02-11T11:08:45.594Z,987.86
2019-02-11T11:09:45.722Z,987.85
2019-02-11T11:10:45.843Z,987.88
2019-02-11T11:11:45.972Z,987.86
2019-02-11T11:12:46.100Z,987.92
2019-02-11T11:13:46.289Z,987.93
2019-02-11T11:14:46.392Z,987.90
2019-02-11T11:15:46.515Z,987.92
2019-02-11T11:16:46.649Z,987.95
2019-02-11T11:17:46.771Z,988.01
2019-02-11T11:18:46.902Z,987.98
2019-02-11T11:19:47.035Z,988.00
2019-02-11T11:20:47.177Z,988.02
2019-02-11T11:21:47.315Z,988.03
2019-02-11T11:22:47.443Z,987.98
2019-02-11T11:23:47.559Z,987.95
2019-02-11T11:24:47.723Z,987.99
2019-02-11T11:25:47.930Z,987.95
2019-02-11T11:26:47.923Z,988.07
2019-02-11T11:27:48.052Z,987.96
2019-02-11T11:28:48.193Z,988.12
2019-02-11T11:29:48.311Z,988.08
2019-02-11T11:30:48.452Z,988.05
2019-02-11T11:31:48.564Z,988.09
2019-02-11T11:32:48.728Z,988.14
2019-02-11T11:33:48.850Z,988.11
2019-02-11T11:34:48.976Z,988.12
2019-02-11T11:35:49.101Z,988.16
2019-02-11T11:36:49.270Z,988.17
2019-02-11T11:37:49.365Z,988.17
2019-02-11T11:38:49.490Z,988.12
2019-02-11T11:39:49.609Z,988.11
2019-02-11T11:40:49.787Z,988.16
2019-02-11T11:41:49.903Z,988.17
2019-02-11T11:42:50.042Z,988.16
2019-02-11T11:43:50.163Z,988.22
2019-02-11T11:44:50.287Z,988.27
2019-02-11T11:45:50.410Z,988.26
2019-02-11T11:46:50.532Z,988.30
2019-02-11T11:47:50.655Z,988.37
2019-02-11T11:48:50.797Z,988.30
2019-02-11T11:49:50.924Z,988.40
2019-02-11T11:50:51.056Z,988.44
2019-02-11T11:51:51.182Z,988.46
2019-02-11T11:52:51.321Z,988.40
2019-02-11T11:53:51.430Z,988.44
2019-02-11T11:54:51.560Z,988.47
2019-02-11T11:55:51.700Z,988.48
2019-02-11T11:56:51.837Z,988.46
2019-02-11T11:57:51.961Z,988.48
2019-02-11T11:58:52.083Z,988.44
2019-02-11T11:59:52.211Z,988.47
2019-02-11T12:00:52.369Z,988.47
2019-02-11T12:01:52.525Z,988.52
2019-02-11T12:03:01.853Z,988.56
2019-02-11T12:03:52.738Z,988.59
2019-02-11T12:04:52.884Z,988.57
2019-02-11T12:05:53.108Z,988.63
2019-02-11T12:06:53.118Z,988.62
2019-02-11T12:07:53.240Z,988.66
2019-02-11T12:08:53.402Z,988.67
2019-02-11T12:09:53.532Z,988.62
2019-02-11T12:10:53.659Z,988.74
2019-02-11T12:11:53.790Z,988.70
2019-02-11T12:12:53.927Z,988.79
2019-02-11T12:13:54.094Z,988.81
2019-02-11T12:14:54.215Z,988.79
2019-02-11T12:15:54.343Z,988.84
2019-02-11T12:16:57.791Z,988.91
2019-02-11T12:17:54.765Z,988.89
2019-02-11T12:18:54.772Z,988.95
2019-02-11T12:19:54.875Z,988.96
2019-02-11T12:20:55.008Z,989.03
2019-02-11T12:21:55.145Z,989.02
2019-02-11T12:22:55.409Z,989.01
2019-02-11T12:23:55.410Z,989.07
2019-02-11T12:24:55.529Z,989.07
2019-02-11T12:25:55.667Z,989.07
2019-02-11T12:26:55.797Z,989.05
2019-02-11T12:27:55.931Z,989.09
2019-02-11T12:28:56.054Z,989.09
2019-02-11T12:29:56.192Z,989.12